BGSF

Kangerlussuaq Airport

Kangerlussuaq, Greenland

BGSF 210950Z AUTO 04008KT 9999NDV FEW050/// M03/M06 Q1018

Observed Flight Rules
Sep-21 @ 09:50 UTC (31 minutes ago)
Unavailable
Wind Clouds
40° at 8 knots
  • Few at 5,000' AGL
Temperatures Readings
Current -3°C / 27°F
Dewpoint -6°C / 21°F
Humidity 80%
Altimeter 30.06" Hg
Pressure 1018 hPa
Elevation 53
Observed Flight Rules
Sep-21 @ 09:50 UTC
(31 minutes ago)
UNK
Wind
40° at 8 knots
Clouds
  • Few at 5,000' AGL
Temperature Dewpoint
-3°C / 27°F -6°C / 21°F
Humidity Altimeter Pressure
80% 30.06" Hg 1018 hPa